Flight Track Log - Related Links

Times and Time Zones

All times are in EDT time to prevent confusion due to time zone crossing. See the SKW4727 flight status page for this flight to view local times or setup timezone preferences in your user account.

Time Position Orientation Groundspeed Altitude Reporting Facility
EDT Latitude Longitude Course Direction KTS MPH feet Rate Location/Type
Wed 10:55:57 PM 44.8692 -93.1478 69° East 165 190 2,700  Level Minneapolis Center
Wed 10:56:58 PM 44.8811 -93.0536 80° East 234 269 5,400 2,976 Climbing Minneapolis Center
Wed 10:58:00 PM 45.0342 -92.6264 66° East  Level FlightAware Approximate
Wed 10:58:00 PM 44.9267 -92.9753 51° Northeast 255 293 8,800  Level Minneapolis Center
Wed 10:59:00 PM 45.0792 -92.4800 66° East  Level FlightAware Approximate
Wed 10:59:01 PM 44.9889 -92.9358 24° Northeast 254 292 11,400  Level Minneapolis Center
Wed 11:00:00 PM 45.1142 -92.3305 69° East  Level FlightAware Approximate
Wed 11:00:02 PM 45.0547 -92.8731 34° Northeast 292 336 14,400  Level Minneapolis Center
Wed 11:01:00 PM 45.1540 -92.1809 69° East  Level FlightAware Approximate
Wed 11:01:04 PM 45.0989 -92.7692 59° Northeast 306 352 17,100  Level Minneapolis Center
Wed 11:02:05 PM 45.1453 -92.6581 59° Northeast 327 376 19,200 2,361 Climbing Minneapolis Center
Wed 11:03:06 PM 45.1931 -92.5475 58° Northeast 328 377 21,900 2,311 Climbing Minneapolis Center
Wed 11:04:07 PM 45.2403 -92.4344 59° Northeast 330 380 23,900 1,756 Climbing Minneapolis Center
Wed 11:05:09 PM 45.2911 -92.3139 59° Northeast 350 403 25,500 1,463 Climbing Minneapolis Center
Wed 11:06:10 PM 45.3183 -92.1658 75° East 389 448 26,900 738 Climbing Minneapolis Center
Wed 11:07:11 PM 45.2833 -91.9467 103° East 475 547 27,000 49 Climbing Minneapolis Center
Wed 11:08:12 PM 45.2458 -91.7547 105° East 500 575 27,000  Level Minneapolis Center
Wed 11:09:14 PM 45.2114 -91.5772 105° East 476 548 27,000  Level Minneapolis Center
Wed 11:10:15 PM 45.1769 -91.3975 105° East 474 545 27,000  Level Minneapolis Center
Wed 11:11:16 PM 45.1400 -91.2133 106° East 478 550 27,000  Level Minneapolis Center
Wed 11:12:17 PM 45.1036 -91.0264 105° East 486 559 27,000  Level Minneapolis Center
Wed 11:13:19 PM 45.0703 -90.8567 105° East 483 556 27,000  Level Minneapolis Center
Wed 11:14:20 PM 45.0269 -90.6444 106° East 473 544 27,000  Level Minneapolis Center
Wed 11:15:21 PM 44.9911 -90.4689 106° East 471 542 27,000  Level Minneapolis Center
Wed 11:16:22 PM 44.9558 -90.2936 106° East 469 540 27,000  Level Minneapolis Center
Wed 11:17:23 PM 44.9200 -90.1197 106° East 466 536 27,000  Level Minneapolis Center
Wed 11:18:24 PM 44.8847 -89.9461 106° East 465 535 27,000 -878 Level Minneapolis Center
Wed 11:19:26 PM 44.8478 -89.7714 107° East 465 535 25,200 -2,341 Descending Minneapolis Center
Wed 11:20:27 PM 44.8136 -89.5981 105° East 465 535 22,200 -2,951 Descending Minneapolis Center
Wed 11:21:28 PM 44.7764 -89.4356 108° East 446 513 19,200 -3,148 Descending Minneapolis Center
Wed 11:22:29 PM 44.7358 -89.2514 107° East 428 493 15,800 -2,656 Descending Minneapolis Center
Wed 11:23:30 PM 44.7042 -89.1067 107° East 408 470 13,800 -1,672 Descending Minneapolis Center
Wed 11:24:31 PM 44.6778 -88.9911 108° East 371 427 12,400 -1,475 Descending Minneapolis Center
Wed 11:25:32 PM 44.6456 -88.8389 107° East 345 397 10,800 -1,574 Descending Minneapolis Center
Wed 11:26:33 PM 44.6203 -88.7297 108° East 309 356 9,200 -1,574 Descending Minneapolis Center
Wed 11:27:34 PM 44.5947 -88.6250 109° East 290 334 7,600 -1,525 Descending Minneapolis Center
Wed 11:28:35 PM 44.5567 -88.5314 120° Southeast 282 325 6,100 -1,366 Descending Minneapolis Center
Wed 11:29:37 PM 44.5206 -88.4350 118° Southeast 279 321 4,800 -1,220 Descending Minneapolis Center
Wed 11:30:38 PM 44.4856 -88.3450 119° Southeast 277 319 3,600 -1,033 Descending Minneapolis Center
Wed 11:31:39 PM 44.4550 -88.2686 119° Southeast 257 296 2,700 -843 Descending Minneapolis Center
Wed 11:32:39 PM 44.4508 -88.2150 96° East 203 234 1,900 -800 Descending Minneapolis Center

Login

Don't have an account? Register now (free) for customized features, flight alerts, and more!